Casa Blanca, California
Current Conditions -  °F | °C
As of 1:53 AM on Saturday 22 Nov 2014 (Local Time) from KRAL Reporting Station
Clear Clear  
Wind Chill: 52°   Ceiling: Unl
Heat Index: 52°   Visibility: 10mi
Dew Point: 47°   Wind: 5mph
Humidity: 83%   Direction: 70°ENE
Pressure: 30.08"   Gusts: NA
Location:  33.9119°N, 117.4°W
Report Text: KRAL 220953Z AUTO 07004KT 10SM CLR 11/08 A3008 RMK AO2 SLP175 T01110083
Loading
Personal Weather Stations






























Interactive Weather Map New forecast layout! Learn more

10-Day Weather Forecast

Advertisements
Track Severe Weather on mobile